sensor_id;sensor_type;location;lat;lon;timestamp;temperature;humidity
75457;SHT31;64036;48.266;14.192;2022-12-18T00:01:16;-4.57;80.72
75457;SHT31;64036;48.266;14.192;2022-12-18T00:03:45;-4.51;80.60
75457;SHT31;64036;48.266;14.192;2022-12-18T00:06:11;-4.46;80.45
75457;SHT31;64036;48.266;14.192;2022-12-18T00:08:39;-4.45;80.36
75457;SHT31;64036;48.266;14.192;2022-12-18T00:11:06;-4.43;80.53
75457;SHT31;64036;48.266;14.192;2022-12-18T00:13:36;-4.34;80.97
75457;SHT31;64036;48.266;14.192;2022-12-18T00:16:06;-4.27;80.76
75457;SHT31;64036;48.266;14.192;2022-12-18T00:18:35;-4.21;80.63
75457;SHT31;64036;48.266;14.192;2022-12-18T00:21:02;-4.16;80.58
75457;SHT31;64036;48.266;14.192;2022-12-18T00:23:31;-4.11;80.54
75457;SHT31;64036;48.266;14.192;2022-12-18T00:26:04;-4.07;80.54
75457;SHT31;64036;48.266;14.192;2022-12-18T00:28:40;-4.04;80.55
75457;SHT31;64036;48.266;14.192;2022-12-18T00:31:13;-4.02;80.59
75457;SHT31;64036;48.266;14.192;2022-12-18T00:33:43;-3.97;80.66
75457;SHT31;64036;48.266;14.192;2022-12-18T00:36:10;-3.94;80.52
75457;SHT31;64036;48.266;14.192;2022-12-18T00:38:43;-3.93;80.72
75457;SHT31;64036;48.266;14.192;2022-12-18T00:41:10;-3.91;80.80
75457;SHT31;64036;48.266;14.192;2022-12-18T00:43:38;-3.94;80.76
75457;SHT31;64036;48.266;14.192;2022-12-18T00:46:04;-3.93;80.68
75457;SHT31;64036;48.266;14.192;2022-12-18T00:48:31;-4.01;80.27
75457;SHT31;64036;48.266;14.192;2022-12-18T00:50:57;-4.08;80.40
75457;SHT31;64036;48.266;14.192;2022-12-18T00:53:23;-4.07;80.76
75457;SHT31;64036;48.266;14.192;2022-12-18T00:55:48;-4.04;80.99
75457;SHT31;64036;48.266;14.192;2022-12-18T00:58:15;-4.01;81.11
75457;SHT31;64036;48.266;14.192;2022-12-18T01:00:42;-3.95;81.27
75457;SHT31;64036;48.266;14.192;2022-12-18T01:03:09;-3.93;81.20
75457;SHT31;64036;48.266;14.192;2022-12-18T01:05:40;-3.93;81.30
75457;SHT31;64036;48.266;14.192;2022-12-18T01:08:06;-3.92;81.43
75457;SHT31;64036;48.266;14.192;2022-12-18T01:10:32;-3.91;81.47
75457;SHT31;64036;48.266;14.192;2022-12-18T01:12:58;-3.86;81.57
75457;SHT31;64036;48.266;14.192;2022-12-18T01:15:23;-3.83;81.46
75457;SHT31;64036;48.266;14.192;2022-12-18T01:17:51;-3.79;81.77
75457;SHT31;64036;48.266;14.192;2022-12-18T01:20:18;-3.79;81.70
75457;SHT31;64036;48.266;14.192;2022-12-18T01:22:43;-3.81;81.84
75457;SHT31;64036;48.266;14.192;2022-12-18T01:25:09;-3.78;82.05
75457;SHT31;64036;48.266;14.192;2022-12-18T01:27:35;-3.76;82.01
75457;SHT31;64036;48.266;14.192;2022-12-18T01:30:01;-3.73;82.23
75457;SHT31;64036;48.266;14.192;2022-12-18T01:32:29;-3.71;82.26
75457;SHT31;64036;48.266;14.192;2022-12-18T01:34:56;-3.69;82.26
75457;SHT31;64036;48.266;14.192;2022-12-18T01:37:22;-3.71;82.13
75457;SHT31;64036;48.266;14.192;2022-12-18T01:39:47;-3.70;82.18
75457;SHT31;64036;48.266;14.192;2022-12-18T01:42:15;-3.69;82.15
75457;SHT31;64036;48.266;14.192;2022-12-18T01:47:38;-3.68;82.19
75457;SHT31;64036;48.266;14.192;2022-12-18T01:50:27;-3.65;82.25
75457;SHT31;64036;48.266;14.192;2022-12-18T01:53:02;-3.59;82.32
75457;SHT31;64036;48.266;14.192;2022-12-18T01:55:46;-3.60;82.20
75457;SHT31;64036;48.266;14.192;2022-12-18T01:58:23;-3.55;82.44
75457;SHT31;64036;48.266;14.192;2022-12-18T02:01:25;-3.50;82.36
75457;SHT31;64036;48.266;14.192;2022-12-18T02:03:54;-3.54;82.12
75457;SHT31;64036;48.266;14.192;2022-12-18T02:14:40;-3.63;82.35
75457;SHT31;64036;48.266;14.192;2022-12-18T02:17:21;-3.60;82.56
75457;SHT31;64036;48.266;14.192;2022-12-18T02:31:53;-3.38;82.70
75457;SHT31;64036;48.266;14.192;2022-12-18T02:34:26;-3.33;82.63
75457;SHT31;64036;48.266;14.192;2022-12-18T02:36:56;-3.31;82.64
75457;SHT31;64036;48.266;14.192;2022-12-18T02:39:25;-3.24;82.60
75457;SHT31;64036;48.266;14.192;2022-12-18T02:41:52;-3.23;82.45
75457;SHT31;64036;48.266;14.192;2022-12-18T02:44:18;-3.24;82.45
75457;SHT31;64036;48.266;14.192;2022-12-18T02:46:50;-3.22;82.61
75457;SHT31;64036;48.266;14.192;2022-12-18T02:58:35;-3.13;82.47
75457;SHT31;64036;48.266;14.192;2022-12-18T03:04:04;-3.22;82.42
75457;SHT31;64036;48.266;14.192;2022-12-18T03:06:48;-3.23;82.56
75457;SHT31;64036;48.266;14.192;2022-12-18T03:09:21;-3.27;82.48
75457;SHT31;64036;48.266;14.192;2022-12-18T03:11:56;-3.34;82.51
75457;SHT31;64036;48.266;14.192;2022-12-18T03:17:32;-3.41;82.65
75457;SHT31;64036;48.266;14.192;2022-12-18T03:20:06;-3.39;82.65
75457;SHT31;64036;48.266;14.192;2022-12-18T03:22:43;-3.41;82.65
75457;SHT31;64036;48.266;14.192;2022-12-18T03:25:13;-3.42;82.64
75457;SHT31;64036;48.266;14.192;2022-12-18T03:27:46;-3.46;82.69
75457;SHT31;64036;48.266;14.192;2022-12-18T03:30:15;-3.51;82.84
75457;SHT31;64036;48.266;14.192;2022-12-18T03:32:50;-3.55;82.94
75457;SHT31;64036;48.266;14.192;2022-12-18T03:35:29;-3.52;82.99
75457;SHT31;64036;48.266;14.192;2022-12-18T03:37:58;-3.49;83.00
75457;SHT31;64036;48.266;14.192;2022-12-18T03:40:26;-3.49;82.91
75457;SHT31;64036;48.266;14.192;2022-12-18T03:43:28;-3.58;82.93
75457;SHT31;64036;48.266;14.192;2022-12-18T03:46:24;-3.72;83.28
75457;SHT31;64036;48.266;14.192;2022-12-18T03:48:59;-3.84;83.68
75457;SHT31;64036;48.266;14.192;2022-12-18T03:54:08;-4.03;84.20
75457;SHT31;64036;48.266;14.192;2022-12-18T03:56:38;-4.07;84.39
75457;SHT31;64036;48.266;14.192;2022-12-18T03:59:09;-4.07;84.42
75457;SHT31;64036;48.266;14.192;2022-12-18T04:01:39;-4.11;84.47
75457;SHT31;64036;48.266;14.192;2022-12-18T04:04:10;-4.14;84.53
75457;SHT31;64036;48.266;14.192;2022-12-18T04:06:38;-4.16;84.56
75457;SHT31;64036;48.266;14.192;2022-12-18T04:09:06;-4.16;84.54
75457;SHT31;64036;48.266;14.192;2022-12-18T04:11:32;-4.20;84.53
75457;SHT31;64036;48.266;14.192;2022-12-18T04:13:58;-4.21;84.41
75457;SHT31;64036;48.266;14.192;2022-12-18T04:16:27;-4.20;84.24
75457;SHT31;64036;48.266;14.192;2022-12-18T04:18:53;-4.18;84.05
75457;SHT31;64036;48.266;14.192;2022-12-18T04:21:19;-4.13;83.97
75457;SHT31;64036;48.266;14.192;2022-12-18T04:23:46;-4.08;83.65
75457;SHT31;64036;48.266;14.192;2022-12-18T04:26:11;-4.07;83.49
75457;SHT31;64036;48.266;14.192;2022-12-18T04:28:37;-4.04;83.32
75457;SHT31;64036;48.266;14.192;2022-12-18T04:31:03;-4.01;83.28
75457;SHT31;64036;48.266;14.192;2022-12-18T04:33:29;-3.98;83.08
75457;SHT31;64036;48.266;14.192;2022-12-18T04:35:55;-3.93;82.95
75457;SHT31;64036;48.266;14.192;2022-12-18T04:38:20;-3.91;82.78
75457;SHT31;64036;48.266;14.192;2022-12-18T04:40:46;-3.89;82.67
75457;SHT31;64036;48.266;14.192;2022-12-18T04:43:12;-3.88;82.42
75457;SHT31;64036;48.266;14.192;2022-12-18T04:45:38;-3.94;82.11
75457;SHT31;64036;48.266;14.192;2022-12-18T04:48:03;-4.07;81.93
75457;SHT31;64036;48.266;14.192;2022-12-18T04:50:29;-4.16;82.21
75457;SHT31;64036;48.266;14.192;2022-12-18T04:52:56;-4.20;82.50
75457;SHT31;64036;48.266;14.192;2022-12-18T04:55:21;-4.21;82.66
75457;SHT31;64036;48.266;14.192;2022-12-18T04:57:50;-4.18;82.84
75457;SHT31;64036;48.266;14.192;2022-12-18T05:00:16;-4.21;82.82
75457;SHT31;64036;48.266;14.192;2022-12-18T05:02:42;-4.29;82.74
75457;SHT31;64036;48.266;14.192;2022-12-18T05:05:08;-4.41;82.64
75457;SHT31;64036;48.266;14.192;2022-12-18T05:07:34;-4.49;82.63
75457;SHT31;64036;48.266;14.192;2022-12-18T05:09:59;-4.55;82.60
75457;SHT31;64036;48.266;14.192;2022-12-18T05:12:25;-4.63;82.58
75457;SHT31;64036;48.266;14.192;2022-12-18T05:14:51;-4.63;82.70
75457;SHT31;64036;48.266;14.192;2022-12-18T05:17:17;-4.58;82.63
75457;SHT31;64036;48.266;14.192;2022-12-18T05:19:43;-4.59;82.48
75457;SHT31;64036;48.266;14.192;2022-12-18T05:22:09;-4.65;82.11
75457;SHT31;64036;48.266;14.192;2022-12-18T05:24:35;-4.73;81.89
75457;SHT31;64036;48.266;14.192;2022-12-18T05:27:00;-4.79;81.71
75457;SHT31;64036;48.266;14.192;2022-12-18T05:29:26;-4.86;81.57
75457;SHT31;64036;48.266;14.192;2022-12-18T05:31:52;-4.94;81.37
75457;SHT31;64036;48.266;14.192;2022-12-18T05:34:17;-5.00;81.59
75457;SHT31;64036;48.266;14.192;2022-12-18T05:36:43;-5.02;81.71
75457;SHT31;64036;48.266;14.192;2022-12-18T05:39:08;-5.06;81.55
75457;SHT31;64036;48.266;14.192;2022-12-18T05:41:34;-5.16;81.18
75457;SHT31;64036;48.266;14.192;2022-12-18T05:44:00;-5.27;81.03
75457;SHT31;64036;48.266;14.192;2022-12-18T05:46:26;-5.36;81.16
75457;SHT31;64036;48.266;14.192;2022-12-18T05:48:52;-5.43;81.24
75457;SHT31;64036;48.266;14.192;2022-12-18T05:51:18;-5.48;81.38
75457;SHT31;64036;48.266;14.192;2022-12-18T05:53:46;-5.55;81.10
75457;SHT31;64036;48.266;14.192;2022-12-18T05:56:13;-5.66;80.79
75457;SHT31;64036;48.266;14.192;2022-12-18T05:58:42;-5.81;80.50
75457;SHT31;64036;48.266;14.192;2022-12-18T06:01:10;-5.94;80.60
75457;SHT31;64036;48.266;14.192;2022-12-18T06:03:38;-5.98;80.98
75457;SHT31;64036;48.266;14.192;2022-12-18T06:06:04;-6.03;80.78
75457;SHT31;64036;48.266;14.192;2022-12-18T06:08:47;-6.16;80.48
75457;SHT31;64036;48.266;14.192;2022-12-18T06:11:16;-6.25;80.64
75457;SHT31;64036;48.266;14.192;2022-12-18T06:13:49;-6.30;80.81
75457;SHT31;64036;48.266;14.192;2022-12-18T06:16:17;-6.37;80.75
75457;SHT31;64036;48.266;14.192;2022-12-18T06:18:43;-6.40;81.05
75457;SHT31;64036;48.266;14.192;2022-12-18T06:21:08;-6.43;81.14
75457;SHT31;64036;48.266;14.192;2022-12-18T06:23:34;-6.52;81.03
75457;SHT31;64036;48.266;14.192;2022-12-18T06:26:18;-6.58;81.34
75457;SHT31;64036;48.266;14.192;2022-12-18T06:28:44;-6.57;81.50
75457;SHT31;64036;48.266;14.192;2022-12-18T06:31:10;-6.59;81.44
75457;SHT31;64036;48.266;14.192;2022-12-18T06:33:37;-6.60;81.29
75457;SHT31;64036;48.266;14.192;2022-12-18T06:36:10;-6.67;80.93
75457;SHT31;64036;48.266;14.192;2022-12-18T06:38:39;-6.73;80.99
75457;SHT31;64036;48.266;14.192;2022-12-18T06:41:10;-6.75;80.95
75457;SHT31;64036;48.266;14.192;2022-12-18T06:43:41;-6.78;80.81
75457;SHT31;64036;48.266;14.192;2022-12-18T06:46:08;-6.78;80.70
75457;SHT31;64036;48.266;14.192;2022-12-18T06:48:34;-6.80;80.75
75457;SHT31;64036;48.266;14.192;2022-12-18T06:50:59;-6.81;80.78
75457;SHT31;64036;48.266;14.192;2022-12-18T06:53:25;-6.83;80.66
75457;SHT31;64036;48.266;14.192;2022-12-18T06:55:51;-6.86;80.69
75457;SHT31;64036;48.266;14.192;2022-12-18T06:58:17;-6.86;80.96
75457;SHT31;64036;48.266;14.192;2022-12-18T07:00:43;-6.86;80.89
75457;SHT31;64036;48.266;14.192;2022-12-18T07:03:09;-6.88;80.56
75457;SHT31;64036;48.266;14.192;2022-12-18T07:05:39;-6.89;80.52
75457;SHT31;64036;48.266;14.192;2022-12-18T07:08:05;-6.82;80.85
75457;SHT31;64036;48.266;14.192;2022-12-18T07:10:31;-6.73;81.03
75457;SHT31;64036;48.266;14.192;2022-12-18T07:12:56;-6.66;81.06
75457;SHT31;64036;48.266;14.192;2022-12-18T07:15:22;-6.54;81.21
75457;SHT31;64036;48.266;14.192;2022-12-18T07:17:47;-6.43;81.23
75457;SHT31;64036;48.266;14.192;2022-12-18T07:20:13;-6.26;81.16
75457;SHT31;64036;48.266;14.192;2022-12-18T07:22:39;-6.10;81.07
75457;SHT31;64036;48.266;14.192;2022-12-18T07:25:04;-5.93;80.83
75457;SHT31;64036;48.266;14.192;2022-12-18T07:27:31;-5.76;80.64
75457;SHT31;64036;48.266;14.192;2022-12-18T07:29:56;-5.60;80.54
75457;SHT31;64036;48.266;14.192;2022-12-18T07:32:22;-5.42;80.42
75457;SHT31;64036;48.266;14.192;2022-12-18T07:34:47;-5.25;80.05
75457;SHT31;64036;48.266;14.192;2022-12-18T07:37:13;-4.86;79.87
75457;SHT31;64036;48.266;14.192;2022-12-18T07:39:39;-4.63;79.57
75457;SHT31;64036;48.266;14.192;2022-12-18T07:42:04;-4.13;79.28
75457;SHT31;64036;48.266;14.192;2022-12-18T07:44:48;-3.26;78.65
75457;SHT31;64036;48.266;14.192;2022-12-18T07:47:14;-2.42;77.60
75457;SHT31;64036;48.266;14.192;2022-12-18T07:49:39;-1.65;76.43
75457;SHT31;64036;48.266;14.192;2022-12-18T07:52:05;-1.08;74.34
75457;SHT31;64036;48.266;14.192;2022-12-18T07:54:30;-0.54;73.77
75457;SHT31;64036;48.266;14.192;2022-12-18T07:56:56;0.14;72.92
75457;SHT31;64036;48.266;14.192;2022-12-18T07:59:21;0.64;71.53
75457;SHT31;64036;48.266;14.192;2022-12-18T08:01:47;1.00;70.72
75457;SHT31;64036;48.266;14.192;2022-12-18T08:04:13;1.11;68.98
75457;SHT31;64036;48.266;14.192;2022-12-18T08:06:38;1.43;68.63
75457;SHT31;64036;48.266;14.192;2022-12-18T08:09:04;1.86;67.92
75457;SHT31;64036;48.266;14.192;2022-12-18T08:11:29;2.20;66.95
75457;SHT31;64036;48.266;14.192;2022-12-18T08:13:55;2.25;65.90
75457;SHT31;64036;48.266;14.192;2022-12-18T08:16:23;1.77;65.74
75457;SHT31;64036;48.266;14.192;2022-12-18T08:18:48;1.34;65.96
75457;SHT31;64036;48.266;14.192;2022-12-18T08:21:21;0.92;65.72
75457;SHT31;64036;48.266;14.192;2022-12-18T08:23:50;0.49;65.63
75457;SHT31;64036;48.266;14.192;2022-12-18T08:26:18;0.15;65.99
75457;SHT31;64036;48.266;14.192;2022-12-18T08:28:43;-0.01;66.15
75457;SHT31;64036;48.266;14.192;2022-12-18T08:31:09;-0.20;65.40
75457;SHT31;64036;48.266;14.192;2022-12-18T08:33:40;-0.40;65.89
75457;SHT31;64036;48.266;14.192;2022-12-18T08:36:07;-0.56;66.04
75457;SHT31;64036;48.266;14.192;2022-12-18T08:38:34;-0.72;66.38
75457;SHT31;64036;48.266;14.192;2022-12-18T08:41:04;-0.84;66.50
75457;SHT31;64036;48.266;14.192;2022-12-18T08:43:37;-1.08;66.73
75457;SHT31;64036;48.266;14.192;2022-12-18T08:46:36;-1.30;67.44
75457;SHT31;64036;48.266;14.192;2022-12-18T08:49:05;-1.39;67.83
75457;SHT31;64036;48.266;14.192;2022-12-18T08:51:32;-1.43;67.94
75457;SHT31;64036;48.266;14.192;2022-12-18T08:53:59;-1.49;67.87
75457;SHT31;64036;48.266;14.192;2022-12-18T08:56:24;-1.45;68.06
75457;SHT31;64036;48.266;14.192;2022-12-18T08:58:53;-1.18;67.89
75457;SHT31;64036;48.266;14.192;2022-12-18T09:01:20;-0.78;67.54
75457;SHT31;64036;48.266;14.192;2022-12-18T09:03:47;-0.17;66.58
75457;SHT31;64036;48.266;14.192;2022-12-18T09:06:15;0.55;65.64
75457;SHT31;64036;48.266;14.192;2022-12-18T09:08:45;1.40;64.22
75457;SHT31;64036;48.266;14.192;2022-12-18T09:11:13;2.24;62.81
75457;SHT31;64036;48.266;14.192;2022-12-18T09:13:48;3.02;61.56
75457;SHT31;64036;48.266;14.192;2022-12-18T09:16:15;3.70;59.90
75457;SHT31;64036;48.266;14.192;2022-12-18T09:18:41;4.16;58.51
75457;SHT31;64036;48.266;14.192;2022-12-18T09:21:07;4.50;58.03
75457;SHT31;64036;48.266;14.192;2022-12-18T09:23:39;4.75;57.57
75457;SHT31;64036;48.266;14.192;2022-12-18T09:26:04;5.05;56.23
75457;SHT31;64036;48.266;14.192;2022-12-18T09:28:30;5.27;55.52
75457;SHT31;64036;48.266;14.192;2022-12-18T09:30:56;5.53;54.94
75457;SHT31;64036;48.266;14.192;2022-12-18T09:33:22;5.73;54.30
75457;SHT31;64036;48.266;14.192;2022-12-18T09:35:47;5.85;53.75
75457;SHT31;64036;48.266;14.192;2022-12-18T09:38:14;5.89;53.20
75457;SHT31;64036;48.266;14.192;2022-12-18T09:40:45;5.71;52.85
75457;SHT31;64036;48.266;14.192;2022-12-18T09:43:49;5.51;52.93
75457;SHT31;64036;48.266;14.192;2022-12-18T09:46:18;5.18;53.09
75457;SHT31;64036;48.266;14.192;2022-12-18T09:48:59;5.18;52.47
75457;SHT31;64036;48.266;14.192;2022-12-18T09:51:30;5.21;52.42
75457;SHT31;64036;48.266;14.192;2022-12-18T09:54:07;5.20;52.14
75457;SHT31;64036;48.266;14.192;2022-12-18T09:56:41;5.15;52.14
75457;SHT31;64036;48.266;14.192;2022-12-18T09:59:23;4.69;50.88
75457;SHT31;64036;48.266;14.192;2022-12-18T10:01:52;4.19;51.88
75457;SHT31;64036;48.266;14.192;2022-12-18T10:04:18;3.81;52.03
75457;SHT31;64036;48.266;14.192;2022-12-18T10:09:37;3.22;52.56
75457;SHT31;64036;48.266;14.192;2022-12-18T10:15:32;2.96;53.21
75457;SHT31;64036;48.266;14.192;2022-12-18T10:21:15;2.56;53.97
75457;SHT31;64036;48.266;14.192;2022-12-18T10:26:28;2.48;54.27
75457;SHT31;64036;48.266;14.192;2022-12-18T10:28:53;2.37;54.42
75457;SHT31;64036;48.266;14.192;2022-12-18T10:31:20;2.16;54.54
75457;SHT31;64036;48.266;14.192;2022-12-18T10:33:49;2.04;54.99
75457;SHT31;64036;48.266;14.192;2022-12-18T10:36:15;1.87;55.06
75457;SHT31;64036;48.266;14.192;2022-12-18T10:38:40;1.68;55.51
75457;SHT31;64036;48.266;14.192;2022-12-18T10:41:22;1.64;55.80
75457;SHT31;64036;48.266;14.192;2022-12-18T10:44:15;1.53;55.97
75457;SHT31;64036;48.266;14.192;2022-12-18T10:46:43;1.55;56.22
75457;SHT31;64036;48.266;14.192;2022-12-18T10:49:27;1.61;56.17
75457;SHT31;64036;48.266;14.192;2022-12-18T10:54:52;1.82;56.29
75457;SHT31;64036;48.266;14.192;2022-12-18T10:57:32;1.92;56.68
75457;SHT31;64036;48.266;14.192;2022-12-18T11:02:55;2.19;56.17
75457;SHT31;64036;48.266;14.192;2022-12-18T11:05:32;2.17;55.93
75457;SHT31;64036;48.266;14.192;2022-12-18T11:08:01;2.16;56.00
75457;SHT31;64036;48.266;14.192;2022-12-18T11:10:32;2.12;55.98
75457;SHT31;64036;48.266;14.192;2022-12-18T11:13:09;2.18;56.68
75457;SHT31;64036;48.266;14.192;2022-12-18T11:15:43;2.39;57.29
75457;SHT31;64036;48.266;14.192;2022-12-18T11:18:16;2.56;57.13
75457;SHT31;64036;48.266;14.192;2022-12-18T11:20:51;2.66;56.85
75457;SHT31;64036;48.266;14.192;2022-12-18T11:23:22;2.80;56.94
75457;SHT31;64036;48.266;14.192;2022-12-18T11:25:53;2.93;56.74
75457;SHT31;64036;48.266;14.192;2022-12-18T11:28:34;3.02;57.15
75457;SHT31;64036;48.266;14.192;2022-12-18T11:36:39;2.85;56.64
75457;SHT31;64036;48.266;14.192;2022-12-18T11:41:49;2.69;56.42
75457;SHT31;64036;48.266;14.192;2022-12-18T11:44:36;2.39;56.22
75457;SHT31;64036;48.266;14.192;2022-12-18T11:50:13;1.76;57.96
75457;SHT31;64036;48.266;14.192;2022-12-18T11:52:49;1.61;58.73
75457;SHT31;64036;48.266;14.192;2022-12-18T11:55:38;1.27;59.09
75457;SHT31;64036;48.266;14.192;2022-12-18T12:07:28;1.44;60.97
75457;SHT31;64036;48.266;14.192;2022-12-18T12:28:24;1.11;61.74
75457;SHT31;64036;48.266;14.192;2022-12-18T12:37:00;1.13;62.98
75457;SHT31;64036;48.266;14.192;2022-12-18T12:39:37;1.09;63.10
75457;SHT31;64036;48.266;14.192;2022-12-18T12:42:09;1.08;63.54
75457;SHT31;64036;48.266;14.192;2022-12-18T12:45:03;0.98;63.44
75457;SHT31;64036;48.266;14.192;2022-12-18T12:47:33;1.00;63.68
75457;SHT31;64036;48.266;14.192;2022-12-18T12:50:05;0.86;63.68
75457;SHT31;64036;48.266;14.192;2022-12-18T12:52:42;0.77;64.12
75457;SHT31;64036;48.266;14.192;2022-12-18T12:55:21;0.60;64.39
75457;SHT31;64036;48.266;14.192;2022-12-18T13:00:49;0.45;65.04
75457;SHT31;64036;48.266;14.192;2022-12-18T13:08:58;0.12;65.98
75457;SHT31;64036;48.266;14.192;2022-12-18T13:11:47;0.01;66.41
75457;SHT31;64036;48.266;14.192;2022-12-18T13:14:32;-0.15;66.57
75457;SHT31;64036;48.266;14.192;2022-12-18T13:20:05;-0.09;66.67
75457;SHT31;64036;48.266;14.192;2022-12-18T13:25:01;-0.24;67.11
75457;SHT31;64036;48.266;14.192;2022-12-18T13:40:57;-0.88;69.76
75457;SHT31;64036;48.266;14.192;2022-12-18T13:43:56;-1.02;70.49
75457;SHT31;64036;48.266;14.192;2022-12-18T13:46:53;-1.15;70.82
75457;SHT31;64036;48.266;14.192;2022-12-18T13:49:28;-1.22;71.20
75457;SHT31;64036;48.266;14.192;2022-12-18T13:52:21;-1.28;71.39
75457;SHT31;64036;48.266;14.192;2022-12-18T13:54:51;-1.38;71.81
75457;SHT31;64036;48.266;14.192;2022-12-18T13:57:30;-1.48;72.33
75457;SHT31;64036;48.266;14.192;2022-12-18T14:00:40;-1.59;72.89
75457;SHT31;64036;48.266;14.192;2022-12-18T14:02:57;-1.73;73.78
75457;SHT31;64036;48.266;14.192;2022-12-18T14:05:31;-1.81;74.33
75457;SHT31;64036;48.266;14.192;2022-12-18T14:08:05;-1.86;74.81
75457;SHT31;64036;48.266;14.192;2022-12-18T14:10:39;-1.89;75.10
75457;SHT31;64036;48.266;14.192;2022-12-18T14:13:11;-1.92;75.29
75457;SHT31;64036;48.266;14.192;2022-12-18T14:15:47;-1.95;75.76
75457;SHT31;64036;48.266;14.192;2022-12-18T14:18:18;-1.99;76.08
75457;SHT31;64036;48.266;14.192;2022-12-18T14:20:47;-2.01;76.20
75457;SHT31;64036;48.266;14.192;2022-12-18T14:29:18;-2.13;77.21
75457;SHT31;64036;48.266;14.192;2022-12-18T14:32:09;-2.17;77.60
75457;SHT31;64036;48.266;14.192;2022-12-18T14:34:49;-2.19;77.79
75457;SHT31;64036;48.266;14.192;2022-12-18T14:37:19;-2.21;77.95
75457;SHT31;64036;48.266;14.192;2022-12-18T14:39:53;-2.24;78.28
75457;SHT31;64036;48.266;14.192;2022-12-18T14:42:24;-2.29;78.28
75457;SHT31;64036;48.266;14.192;2022-12-18T14:45:39;-2.26;77.81
75457;SHT31;64036;48.266;14.192;2022-12-18T14:47:58;-2.22;77.40
75457;SHT31;64036;48.266;14.192;2022-12-18T14:50:25;-2.23;77.40
75457;SHT31;64036;48.266;14.192;2022-12-18T14:52:51;-2.25;77.41
75457;SHT31;64036;48.266;14.192;2022-12-18T14:55:17;-2.28;77.51
75457;SHT31;64036;48.266;14.192;2022-12-18T14:57:45;-2.31;77.77
75457;SHT31;64036;48.266;14.192;2022-12-18T15:00:16;-2.33;77.84
75457;SHT31;64036;48.266;14.192;2022-12-18T15:02:50;-2.39;78.10
75457;SHT31;64036;48.266;14.192;2022-12-18T15:05:26;-2.39;78.01
75457;SHT31;64036;48.266;14.192;2022-12-18T15:07:55;-2.38;78.00
75457;SHT31;64036;48.266;14.192;2022-12-18T15:28:30;-2.59;78.70
75457;SHT31;64036;48.266;14.192;2022-12-18T15:31:05;-2.62;78.58
75457;SHT31;64036;48.266;14.192;2022-12-18T15:33:44;-2.65;78.85
75457;SHT31;64036;48.266;14.192;2022-12-18T15:36:28;-2.66;78.83
75457;SHT31;64036;48.266;14.192;2022-12-18T15:38:55;-2.64;78.82
75457;SHT31;64036;48.266;14.192;2022-12-18T15:41:22;-2.63;78.88
75457;SHT31;64036;48.266;14.192;2022-12-18T15:43:49;-2.63;78.68
75457;SHT31;64036;48.266;14.192;2022-12-18T15:46:22;-2.63;78.81
75457;SHT31;64036;48.266;14.192;2022-12-18T15:48:50;-2.66;78.80
75457;SHT31;64036;48.266;14.192;2022-12-18T15:51:34;-2.70;78.94
75457;SHT31;64036;48.266;14.192;2022-12-18T15:54:02;-2.70;78.93
75457;SHT31;64036;48.266;14.192;2022-12-18T15:56:30;-2.72;78.97
75457;SHT31;64036;48.266;14.192;2022-12-18T15:59:16;-2.72;79.25
75457;SHT31;64036;48.266;14.192;2022-12-18T16:01:45;-2.76;79.48
75457;SHT31;64036;48.266;14.192;2022-12-18T16:04:15;-2.75;79.60
75457;SHT31;64036;48.266;14.192;2022-12-18T16:06:45;-2.71;79.49
75457;SHT31;64036;48.266;14.192;2022-12-18T16:09:11;-2.68;79.40
75457;SHT31;64036;48.266;14.192;2022-12-18T16:11:37;-2.69;79.38
75457;SHT31;64036;48.266;14.192;2022-12-18T16:14:17;-2.76;79.67
75457;SHT31;64036;48.266;14.192;2022-12-18T16:16:50;-2.78;79.92
75457;SHT31;64036;48.266;14.192;2022-12-18T16:19:16;-2.79;79.96
75457;SHT31;64036;48.266;14.192;2022-12-18T16:21:45;-2.80;80.03
75457;SHT31;64036;48.266;14.192;2022-12-18T16:24:15;-2.78;79.83
75457;SHT31;64036;48.266;14.192;2022-12-18T16:26:53;-2.78;79.89
75457;SHT31;64036;48.266;14.192;2022-12-18T16:29:23;-2.79;79.99
75457;SHT31;64036;48.266;14.192;2022-12-18T16:31:52;-2.80;79.93
75457;SHT31;64036;48.266;14.192;2022-12-18T16:34:27;-2.79;79.87
75457;SHT31;64036;48.266;14.192;2022-12-18T16:37:00;-2.75;80.28
75457;SHT31;64036;48.266;14.192;2022-12-18T16:39:28;-2.74;80.08
75457;SHT31;64036;48.266;14.192;2022-12-18T16:41:55;-2.75;79.80
75457;SHT31;64036;48.266;14.192;2022-12-18T16:44:21;-2.76;79.75
75457;SHT31;64036;48.266;14.192;2022-12-18T16:46:47;-2.77;79.61
75457;SHT31;64036;48.266;14.192;2022-12-18T16:49:13;-2.75;79.59
75457;SHT31;64036;48.266;14.192;2022-12-18T16:51:41;-2.74;79.63
75457;SHT31;64036;48.266;14.192;2022-12-18T16:54:07;-2.74;79.57
75457;SHT31;64036;48.266;14.192;2022-12-18T16:56:34;-2.74;79.52
75457;SHT31;64036;48.266;14.192;2022-12-18T16:59:02;-2.74;79.50
75457;SHT31;64036;48.266;14.192;2022-12-18T17:01:31;-2.74;79.51
75457;SHT31;64036;48.266;14.192;2022-12-18T17:03:58;-2.77;79.87
75457;SHT31;64036;48.266;14.192;2022-12-18T17:06:27;-2.77;79.91
75457;SHT31;64036;48.266;14.192;2022-12-18T17:08:59;-2.75;79.91
75457;SHT31;64036;48.266;14.192;2022-12-18T17:11:31;-2.75;80.08
75457;SHT31;64036;48.266;14.192;2022-12-18T17:14:12;-2.74;80.10
75457;SHT31;64036;48.266;14.192;2022-12-18T17:16:47;-2.71;80.07
75457;SHT31;64036;48.266;14.192;2022-12-18T17:19:14;-2.70;80.02
75457;SHT31;64036;48.266;14.192;2022-12-18T17:21:42;-2.72;80.18
75457;SHT31;64036;48.266;14.192;2022-12-18T17:24:09;-2.72;80.22
75457;SHT31;64036;48.266;14.192;2022-12-18T17:26:36;-2.69;80.16
75457;SHT31;64036;48.266;14.192;2022-12-18T17:29:01;-2.64;80.08
75457;SHT31;64036;48.266;14.192;2022-12-18T17:31:29;-2.63;80.01
75457;SHT31;64036;48.266;14.192;2022-12-18T17:33:57;-2.64;79.98
75457;SHT31;64036;48.266;14.192;2022-12-18T17:36:25;-2.64;79.97
75457;SHT31;64036;48.266;14.192;2022-12-18T17:38:56;-2.62;79.90
75457;SHT31;64036;48.266;14.192;2022-12-18T17:41:26;-2.62;79.80
75457;SHT31;64036;48.266;14.192;2022-12-18T17:43:55;-2.62;79.81
75457;SHT31;64036;48.266;14.192;2022-12-18T17:46:25;-2.62;79.71
75457;SHT31;64036;48.266;14.192;2022-12-18T17:48:56;-2.62;79.60
75457;SHT31;64036;48.266;14.192;2022-12-18T17:51:24;-2.62;79.59
75457;SHT31;64036;48.266;14.192;2022-12-18T17:53:54;-2.65;79.56
75457;SHT31;64036;48.266;14.192;2022-12-18T17:56:22;-2.63;79.61
75457;SHT31;64036;48.266;14.192;2022-12-18T17:58:49;-2.64;79.58
75457;SHT31;64036;48.266;14.192;2022-12-18T18:01:16;-2.64;79.57
75457;SHT31;64036;48.266;14.192;2022-12-18T18:03:48;-2.63;79.56
75457;SHT31;64036;48.266;14.192;2022-12-18T18:06:13;-2.63;79.54
75457;SHT31;64036;48.266;14.192;2022-12-18T18:08:39;-2.62;79.62
75457;SHT31;64036;48.266;14.192;2022-12-18T18:11:06;-2.63;79.67
75457;SHT31;64036;48.266;14.192;2022-12-18T18:13:58;-2.63;79.72
75457;SHT31;64036;48.266;14.192;2022-12-18T18:16:48;-2.61;79.52